createdAt,value
2022-08-20T00:04:36.763Z,20.37
2022-08-20T00:19:36.701Z,20.27
2022-08-20T00:34:37.047Z,19.99
2022-08-20T00:49:36.785Z,19.78
2022-08-20T01:04:36.796Z,19.63
2022-08-20T01:19:37.125Z,19.42
2022-08-20T01:34:36.834Z,19.24
2022-08-20T01:49:36.971Z,19.16
2022-08-20T02:04:37.069Z,19.16
2022-08-20T02:19:37.585Z,19.13
2022-08-20T02:34:37.046Z,19.09
2022-08-20T02:49:37.070Z,19.18
2022-08-20T03:04:37.035Z,19.31
2022-08-20T03:19:37.201Z,19.19
2022-08-20T03:34:37.313Z,19.06
2022-08-20T03:49:37.355Z,19.02
2022-08-20T04:04:37.311Z,18.95
2022-08-20T04:19:37.335Z,19.11
2022-08-20T04:34:37.418Z,19.14
2022-08-20T04:49:37.474Z,19.17
2022-08-20T09:50:09.789Z,19.21
2022-08-20T15:32:29.773Z,21.41
2022-08-20T15:47:29.651Z,24.51
2022-08-20T16:11:36.262Z,24.57
2022-08-20T16:26:36.035Z,24.62
2022-08-20T16:41:36.362Z,25.92
2022-08-20T16:56:36.192Z,24.86
2022-08-20T17:11:36.510Z,25.02
2022-08-20T17:26:36.281Z,24.54
2022-08-20T17:41:36.338Z,24.26
2022-08-20T17:56:36.775Z,23.86
2022-08-20T18:11:36.593Z,23.69
2022-08-20T18:26:36.588Z,23.31
2022-08-20T18:41:36.613Z,23.04
2022-08-20T18:56:36.699Z,22.79
2022-08-20T19:11:36.513Z,22.65
2022-08-20T19:26:36.534Z,22.13
2022-08-20T19:41:36.705Z,21.67
2022-08-20T19:56:36.765Z,21.22
2022-08-20T20:11:36.635Z,20.93
2022-08-20T20:26:36.936Z,20.67
2022-08-20T20:41:36.765Z,20.44
2022-08-20T20:56:36.767Z,20.02
2022-08-20T21:11:36.836Z,19.68
2022-08-20T21:26:37.065Z,19.26
2022-08-20T21:41:36.853Z,19.04
2022-08-20T21:56:36.981Z,18.21
2022-08-20T22:11:36.824Z,17.69
2022-08-20T22:26:36.960Z,17.47
2022-08-20T22:41:36.893Z,17.51
2022-08-20T22:56:37.026Z,17.07
2022-08-20T23:11:37.623Z,16.86
2022-08-20T23:26:40.410Z,17.00
2022-08-20T23:41:37.939Z,17.16
2022-08-20T23:56:40.408Z,17.37
